Terminal Aerodrome Forecast
Issued by NWS

Home | Current Version | Previous Version | Graphics & Text | Print | Product List | Glossary On
Versions: 1 2 3 4 5 6 7 8 9 10 11 12 13
714
FTUS45 KGGW 202054 AAA
TAFSDY
TAF AMD
KSDY 202054Z 2021/2118 28017KT P6SM FEW220
     FM210300 24005KT P6SM FEW210
     FM211600 24004KT P6SM FEW040=

USA.gov is the U.S. government's official web portal to all federal, state and local government web resources and services.